createdAt,value
2023-03-20T00:02:27.443Z,62.30
2023-03-20T00:04:55.968Z,62.40
2023-03-20T00:07:26.546Z,62.20
2023-03-20T00:09:54.945Z,62.30
2023-03-20T00:12:26.436Z,62.20
2023-03-20T00:14:54.968Z,62.40
2023-03-20T00:17:23.544Z,62.40
2023-03-20T00:19:51.948Z,62.40
2023-03-20T00:22:20.692Z,62.20
2023-03-20T00:24:50.985Z,62.30
2023-03-20T00:27:19.692Z,62.20
2023-03-20T00:29:48.879Z,62.20
2023-03-20T00:32:17.253Z,62.30
2023-03-20T00:34:45.826Z,62.20
2023-03-20T00:37:14.906Z,62.00
2023-03-20T00:39:43.673Z,62.30
2023-03-20T00:42:22.082Z,61.90
2023-03-20T00:44:54.173Z,62.00
2023-03-20T00:47:27.228Z,61.90
2023-03-20T00:49:57.963Z,61.90
2023-03-20T00:52:27.307Z,61.90
2023-03-20T00:54:55.792Z,61.70
2023-03-20T00:57:29.319Z,61.60
2023-03-20T01:00:01.461Z,61.60
2023-03-20T01:02:31.601Z,61.60
2023-03-20T01:05:03.507Z,61.50
2023-03-20T01:07:32.383Z,61.70
2023-03-20T01:10:01.352Z,61.70
2023-03-20T01:12:31.523Z,61.70
2023-03-20T01:15:00.465Z,61.60
2023-03-20T01:17:31.561Z,61.60
2023-03-20T01:20:00.114Z,61.60
2023-03-20T01:22:29.594Z,61.60
2023-03-20T01:24:58.405Z,61.60
2023-03-20T01:27:27.281Z,61.60
2023-03-20T01:29:57.430Z,61.70
2023-03-20T01:32:26.116Z,61.60
2023-03-20T01:34:54.936Z,61.60
2023-03-20T01:37:27.190Z,61.60
2023-03-20T01:39:58.586Z,62.50
2023-03-20T01:42:28.787Z,61.60
2023-03-20T01:44:58.898Z,61.60
2023-03-20T01:47:30.485Z,61.60
2023-03-20T01:50:32.463Z,61.60
2023-03-20T01:53:16.213Z,61.60
2023-03-20T01:55:54.125Z,61.40
2023-03-20T01:58:30.694Z,61.60
2023-03-20T02:01:01.309Z,61.40
2023-03-20T02:03:30.548Z,61.40
2023-03-20T02:06:25.648Z,61.60
2023-03-20T02:09:37.153Z,61.40
2023-03-20T02:12:10.407Z,61.40
2023-03-20T02:14:40.458Z,61.50
2023-03-20T02:17:26.440Z,61.40
2023-03-20T02:20:17.140Z,61.30
2023-03-20T02:23:36.451Z,61.30
2023-03-20T02:26:31.527Z,61.20
2023-03-20T02:29:46.456Z,61.10
2023-03-20T02:33:18.825Z,61.00
2023-03-20T02:36:27.520Z,61.00
2023-03-20T02:39:38.886Z,61.00
2023-03-20T02:42:14.322Z,61.00
2023-03-20T02:44:48.492Z,61.00
2023-03-20T02:47:26.005Z,61.10
2023-03-20T02:50:01.977Z,61.20
2023-03-20T02:52:38.421Z,61.30
2023-03-20T02:55:18.842Z,61.40
2023-03-20T02:57:59.472Z,61.40
2023-03-20T03:00:35.846Z,61.40
2023-03-20T03:03:11.061Z,61.30
2023-03-20T03:05:47.957Z,61.00
2023-03-20T03:08:22.431Z,61.00
2023-03-20T03:10:56.877Z,61.00
2023-03-20T03:13:30.646Z,60.80
2023-03-20T03:16:05.561Z,60.80
2023-03-20T03:18:36.124Z,60.50
2023-03-20T03:21:07.190Z,60.20
2023-03-20T03:23:44.871Z,60.10
2023-03-20T03:26:21.499Z,60.00
2023-03-20T03:28:53.810Z,59.80
2023-03-20T03:31:23.119Z,59.80
2023-03-20T03:33:56.182Z,59.80
2023-03-20T03:36:39.762Z,59.80
2023-03-20T03:39:21.345Z,59.80
2023-03-20T03:41:55.327Z,59.90
2023-03-20T03:44:29.820Z,60.00
2023-03-20T03:47:04.890Z,60.10
2023-03-20T03:49:37.005Z,60.00
2023-03-20T03:52:11.748Z,60.10
2023-03-20T03:54:46.645Z,60.10
2023-03-20T03:57:40.990Z,60.10
2023-03-20T04:00:19.198Z,60.10
2023-03-20T04:02:52.733Z,60.10
2023-03-20T04:05:22.348Z,60.10
2023-03-20T04:07:56.473Z,60.20
2023-03-20T04:10:25.273Z,60.20
2023-03-20T04:12:55.355Z,60.10
2023-03-20T04:15:24.010Z,60.10
2023-03-20T04:17:52.369Z,60.20
2023-03-20T04:20:21.793Z,60.00
2023-03-20T04:22:50.425Z,60.10
2023-03-20T04:25:23.051Z,60.10
2023-03-20T04:27:55.887Z,60.10
2023-03-20T04:31:01.710Z,60.10
2023-03-20T04:33:48.544Z,60.10
2023-03-20T04:36:43.233Z,60.00
2023-03-20T04:39:14.875Z,60.10
2023-03-20T04:41:43.289Z,60.10
2023-03-20T04:44:13.854Z,60.00
2023-03-20T04:46:45.837Z,60.00
2023-03-20T04:49:18.036Z,60.00
2023-03-20T04:51:46.785Z,60.00
2023-03-20T04:54:17.379Z,60.00
2023-03-20T04:56:46.131Z,60.00
2023-03-20T04:59:20.421Z,60.10
2023-03-20T05:01:48.908Z,60.00
2023-03-20T05:04:17.838Z,60.10
2023-03-20T05:06:49.093Z,60.10
2023-03-20T05:09:20.105Z,60.00
2023-03-20T05:11:50.287Z,60.10
2023-03-20T05:14:52.446Z,60.00
2023-03-20T05:17:47.194Z,60.00
2023-03-20T05:20:51.779Z,59.90
2023-03-20T05:23:40.965Z,59.90
2023-03-20T05:26:39.701Z,59.80
2023-03-20T05:29:27.430Z,59.80
2023-03-20T05:32:16.832Z,59.70
2023-03-20T05:35:00.433Z,59.60
2023-03-20T05:37:43.784Z,59.70
2023-03-20T05:40:29.167Z,59.60
2023-03-20T05:43:23.835Z,59.70
2023-03-20T05:45:59.686Z,59.70
2023-03-20T05:48:49.740Z,59.70
2023-03-20T05:51:28.917Z,59.70
2023-03-20T05:54:21.115Z,59.70
2023-03-20T05:57:03.596Z,59.70
2023-03-20T06:00:12.192Z,59.70
2023-03-20T06:03:09.653Z,59.70
2023-03-20T06:05:56.926Z,59.70
2023-03-20T06:08:25.802Z,59.80
2023-03-20T06:10:55.463Z,59.70
2023-03-20T06:13:23.996Z,59.80
2023-03-20T06:15:52.628Z,59.70
2023-03-20T06:18:21.649Z,59.90
2023-03-20T06:20:54.365Z,59.80
2023-03-20T06:23:24.964Z,59.90
2023-03-20T06:25:53.814Z,59.90
2023-03-20T06:28:23.285Z,59.80
2023-03-20T06:30:59.859Z,59.80
2023-03-20T06:33:28.926Z,59.90
2023-03-20T06:36:00.602Z,59.80
2023-03-20T06:38:33.322Z,59.90
2023-03-20T06:41:08.899Z,59.90
2023-03-20T06:43:39.621Z,59.90
2023-03-20T06:46:09.029Z,59.90
2023-03-20T06:48:39.055Z,59.90
2023-03-20T06:51:09.196Z,59.90
2023-03-20T06:53:49.016Z,59.80
2023-03-20T06:56:21.245Z,59.80
2023-03-20T06:58:49.585Z,59.90
2023-03-20T07:01:20.715Z,59.90
2023-03-20T07:03:49.280Z,59.90
2023-03-20T07:06:23.004Z,59.80
2023-03-20T07:08:55.327Z,59.80
2023-03-20T07:11:24.178Z,59.80
2023-03-20T07:13:55.904Z,59.80
2023-03-20T07:16:39.178Z,59.80
2023-03-20T07:19:07.594Z,59.80
2023-03-20T07:21:37.896Z,59.90
2023-03-20T07:24:08.466Z,59.90
2023-03-20T07:26:37.097Z,59.80
2023-03-20T07:29:06.195Z,59.80
2023-03-20T07:31:35.092Z,59.90
2023-03-20T07:34:17.166Z,59.80
2023-03-20T07:36:47.167Z,59.80
2023-03-20T07:39:21.529Z,59.70
2023-03-20T07:42:04.265Z,59.70
2023-03-20T07:44:46.105Z,59.70
2023-03-20T07:47:14.532Z,59.70
2023-03-20T07:49:42.912Z,59.80
2023-03-20T07:52:11.810Z,59.70
2023-03-20T07:54:41.728Z,59.70
2023-03-20T07:57:10.579Z,59.60
2023-03-20T07:59:39.018Z,59.60
2023-03-20T08:02:07.809Z,59.60
2023-03-20T08:04:36.508Z,59.40
2023-03-20T08:07:05.041Z,59.40
2023-03-20T08:09:33.964Z,59.40
2023-03-20T08:12:03.704Z,59.40
2023-03-20T08:14:32.210Z,59.20
2023-03-20T08:17:13.975Z,59.20
2023-03-20T08:19:43.558Z,59.20
2023-03-20T08:22:12.070Z,59.20
2023-03-20T08:24:41.313Z,59.00
2023-03-20T08:27:11.427Z,59.00
2023-03-20T08:29:40.115Z,59.00
2023-03-20T08:32:08.941Z,58.80
2023-03-20T08:34:37.598Z,58.80
2023-03-20T08:37:07.986Z,58.80
2023-03-20T08:39:36.652Z,59.00
2023-03-20T08:42:05.669Z,58.90
2023-03-20T08:44:35.827Z,59.00
2023-03-20T08:47:05.621Z,58.80
2023-03-20T08:49:34.223Z,59.00
2023-03-20T08:52:02.885Z,59.00
2023-03-20T08:54:31.829Z,58.80
2023-03-20T08:57:00.139Z,58.80
2023-03-20T08:59:29.125Z,58.80
2023-03-20T09:01:59.166Z,58.60
2023-03-20T09:04:28.042Z,58.40
2023-03-20T09:06:56.630Z,58.20
2023-03-20T09:09:29.808Z,58.40
2023-03-20T09:11:59.240Z,58.20
2023-03-20T09:14:29.131Z,58.20
2023-03-20T09:17:00.971Z,58.10
2023-03-20T09:19:31.680Z,57.90
2023-03-20T09:22:01.031Z,57.60
2023-03-20T09:24:29.722Z,57.90
2023-03-20T09:26:58.620Z,57.20
2023-03-20T09:29:27.122Z,57.10
2023-03-20T09:31:55.829Z,57.10
2023-03-20T09:34:25.754Z,57.10
2023-03-20T09:36:54.372Z,57.70
2023-03-20T09:39:22.879Z,57.00
2023-03-20T09:41:57.563Z,57.00
2023-03-20T09:44:50.009Z,57.00
2023-03-20T09:47:27.679Z,56.80
2023-03-20T09:50:22.393Z,56.90
2023-03-20T09:52:59.448Z,56.60
2023-03-20T09:55:36.024Z,56.70
2023-03-20T09:58:13.323Z,56.80
2023-03-20T10:00:47.073Z,56.90
2023-03-20T10:03:21.621Z,56.90
2023-03-20T10:05:59.611Z,56.80
2023-03-20T10:08:31.943Z,56.40
2023-03-20T10:11:17.877Z,56.50
2023-03-20T10:14:03.508Z,56.70
2023-03-20T10:16:47.243Z,56.60
2023-03-20T10:19:24.849Z,56.80
2023-03-20T10:22:03.651Z,56.60
2023-03-20T10:24:40.966Z,56.60
2023-03-20T10:27:24.226Z,56.70
2023-03-20T10:30:07.629Z,56.70
2023-03-20T10:32:43.205Z,56.60
2023-03-20T10:35:21.680Z,56.70
2023-03-20T10:38:14.797Z,56.60
2023-03-20T10:40:43.856Z,56.30
2023-03-20T10:43:19.811Z,56.60
2023-03-20T10:45:52.566Z,56.50
2023-03-20T10:48:27.519Z,56.80
2023-03-20T10:51:00.398Z,56.50
2023-03-20T10:53:36.349Z,56.50
2023-03-20T10:56:09.070Z,56.40
2023-03-20T10:58:41.578Z,56.30
2023-03-20T11:01:10.935Z,56.30
2023-03-20T11:03:41.301Z,56.30
2023-03-20T11:06:19.309Z,56.30
2023-03-20T11:08:52.674Z,56.10
2023-03-20T11:11:26.667Z,56.00
2023-03-20T11:13:56.213Z,56.00
2023-03-20T11:16:26.908Z,55.90
2023-03-20T11:18:55.747Z,55.80
2023-03-20T11:21:28.628Z,55.90
2023-03-20T11:23:59.209Z,55.70
2023-03-20T11:26:37.985Z,55.70
2023-03-20T11:29:11.762Z,55.30
2023-03-20T11:31:41.936Z,55.40
2023-03-20T11:34:26.745Z,55.30
2023-03-20T11:37:09.775Z,54.90
2023-03-20T11:39:54.976Z,55.00
2023-03-20T11:42:26.579Z,55.20
2023-03-20T11:45:04.245Z,55.30
2023-03-20T11:47:35.875Z,55.00
2023-03-20T11:50:07.290Z,55.00
2023-03-20T11:52:38.877Z,55.00
2023-03-20T11:55:26.196Z,55.00
2023-03-20T11:57:58.581Z,54.80
2023-03-20T12:00:30.901Z,55.60
2023-03-20T12:02:59.378Z,54.80
2023-03-20T12:05:35.600Z,54.70
2023-03-20T12:08:10.429Z,54.50
2023-03-20T12:10:44.842Z,54.60
2023-03-20T12:13:18.265Z,54.50
2023-03-20T12:15:51.134Z,54.70
2023-03-20T12:18:27.875Z,54.60
2023-03-20T12:21:07.516Z,54.40
2023-03-20T12:23:41.155Z,54.40
2023-03-20T12:26:15.664Z,54.30
2023-03-20T12:28:52.834Z,54.10
2023-03-20T12:31:28.011Z,54.20
2023-03-20T12:34:02.316Z,54.20
2023-03-20T12:36:34.581Z,54.20
2023-03-20T12:39:08.094Z,54.40
2023-03-20T12:41:50.858Z,54.50
2023-03-20T12:44:43.335Z,54.50
2023-03-20T12:47:27.709Z,54.40
2023-03-20T12:50:05.717Z,54.60
2023-03-20T12:52:48.609Z,54.70
2023-03-20T12:55:36.885Z,55.10
2023-03-20T12:58:20.767Z,54.50
2023-03-20T13:01:01.728Z,54.50
2023-03-20T13:03:58.953Z,54.60
2023-03-20T13:06:38.438Z,54.70
2023-03-20T13:09:39.104Z,54.70
2023-03-20T13:12:18.011Z,54.70
2023-03-20T13:14:54.855Z,54.80
2023-03-20T13:17:32.026Z,54.90
2023-03-20T13:20:28.065Z,54.90
2023-03-20T13:23:11.770Z,54.60
2023-03-20T13:26:06.101Z,54.60
2023-03-20T13:28:40.996Z,54.60
2023-03-20T13:31:27.308Z,54.80
2023-03-20T13:34:03.597Z,54.80
2023-03-20T13:36:50.922Z,54.90
2023-03-20T13:39:26.680Z,55.00
2023-03-20T13:41:56.584Z,54.90
2023-03-20T13:44:29.169Z,55.00
2023-03-20T13:47:04.887Z,55.00
2023-03-20T13:49:38.768Z,54.90
2023-03-20T13:52:14.242Z,54.90
2023-03-20T13:54:59.929Z,54.90
2023-03-20T13:57:54.255Z,55.00
2023-03-20T14:00:29.593Z,54.90
2023-03-20T14:03:20.188Z,54.90
2023-03-20T14:05:49.201Z,54.90
2023-03-20T14:08:35.589Z,54.90
2023-03-20T14:11:32.552Z,54.90
2023-03-20T14:14:09.911Z,54.90
2023-03-20T14:16:38.667Z,54.90
2023-03-20T14:19:16.034Z,55.00
2023-03-20T14:21:48.437Z,55.10
2023-03-20T14:24:20.614Z,55.30
2023-03-20T14:26:52.290Z,55.40
2023-03-20T14:29:38.629Z,55.40
2023-03-20T14:32:53.267Z,55.40
2023-03-20T14:35:29.750Z,55.50
2023-03-20T14:38:25.317Z,55.40
2023-03-20T14:41:02.299Z,55.40
2023-03-20T14:43:58.580Z,55.50
2023-03-20T14:46:35.994Z,55.30
2023-03-20T14:49:27.900Z,55.40
2023-03-20T14:52:15.400Z,55.30
2023-03-20T14:54:43.985Z,55.40
2023-03-20T14:57:20.226Z,55.60
2023-03-20T14:59:50.808Z,55.50
2023-03-20T15:02:28.713Z,55.70
2023-03-20T15:04:58.329Z,55.70
2023-03-20T15:07:30.946Z,55.80
2023-03-20T15:10:03.638Z,55.70
2023-03-20T15:12:36.656Z,55.80
2023-03-20T15:15:07.910Z,55.70
2023-03-20T15:17:38.885Z,55.70
2023-03-20T15:20:17.388Z,55.60
2023-03-20T15:22:51.363Z,55.40
2023-03-20T15:25:23.051Z,55.50
2023-03-20T15:27:52.945Z,55.50
2023-03-20T15:30:24.115Z,55.50
2023-03-20T15:32:56.474Z,55.50
2023-03-20T15:35:28.079Z,55.50
2023-03-20T15:38:06.257Z,55.50
2023-03-20T15:40:50.498Z,55.50
2023-03-20T15:43:23.988Z,55.40
2023-03-20T15:46:14.128Z,55.50
2023-03-20T15:48:48.517Z,55.60
2023-03-20T15:51:18.609Z,55.70
2023-03-20T15:53:49.897Z,55.80
2023-03-20T15:56:21.251Z,56.10
2023-03-20T15:58:53.357Z,56.20
2023-03-20T16:01:24.008Z,56.50
2023-03-20T16:03:53.993Z,56.50
2023-03-20T16:06:26.204Z,56.50
2023-03-20T16:09:02.454Z,56.50
2023-03-20T16:11:40.812Z,56.50
2023-03-20T16:14:15.234Z,56.60
2023-03-20T16:16:44.987Z,56.70
2023-03-20T16:19:15.497Z,56.80
2023-03-20T16:21:49.891Z,56.70
2023-03-20T16:24:25.813Z,56.80
2023-03-20T16:26:55.934Z,56.80
2023-03-20T16:29:26.792Z,56.70
2023-03-20T16:31:58.906Z,56.70
2023-03-20T16:34:33.722Z,57.40
2023-03-20T16:37:24.612Z,56.80
2023-03-20T16:40:15.721Z,57.10
2023-03-20T16:42:44.970Z,57.00
2023-03-20T16:45:27.139Z,57.00
2023-03-20T16:48:26.450Z,56.90
2023-03-20T16:51:18.396Z,56.90
2023-03-20T16:53:49.175Z,57.00
2023-03-20T16:56:27.458Z,56.90
2023-03-20T16:58:57.097Z,56.90
2023-03-20T17:01:29.336Z,57.00
2023-03-20T17:04:14.764Z,57.00
2023-03-20T17:06:48.429Z,57.10
2023-03-20T17:09:26.897Z,57.20
2023-03-20T17:12:05.397Z,57.20
2023-03-20T17:14:34.132Z,57.20
2023-03-20T17:17:03.259Z,57.20
2023-03-20T17:19:33.984Z,57.30
2023-03-20T17:22:05.561Z,57.40
2023-03-20T17:24:33.990Z,57.30
2023-03-20T17:27:03.923Z,57.30
2023-03-20T17:29:32.274Z,57.50
2023-03-20T17:32:00.742Z,57.30
2023-03-20T17:34:29.515Z,57.40
2023-03-20T17:36:59.826Z,57.40
2023-03-20T17:39:28.533Z,57.30
2023-03-20T17:41:57.896Z,57.40
2023-03-20T17:44:27.762Z,57.40
2023-03-20T17:46:59.073Z,57.40
2023-03-20T17:49:28.509Z,57.50
2023-03-20T17:51:58.692Z,57.60
2023-03-20T17:54:27.114Z,57.50
2023-03-20T17:56:55.760Z,57.60
2023-03-20T17:59:28.672Z,57.70
2023-03-20T18:01:58.853Z,57.80
2023-03-20T18:04:27.338Z,58.00
2023-03-20T18:06:56.267Z,58.00
2023-03-20T18:09:25.873Z,58.10
2023-03-20T18:11:54.250Z,58.20
2023-03-20T18:14:22.593Z,58.20
2023-03-20T18:16:51.249Z,58.40
2023-03-20T18:19:28.373Z,58.40
2023-03-20T18:21:58.338Z,58.60
2023-03-20T18:24:28.299Z,58.60
2023-03-20T18:26:57.218Z,58.60
2023-03-20T18:29:25.805Z,58.60
2023-03-20T18:31:54.429Z,58.60
2023-03-20T18:34:24.481Z,58.40
2023-03-20T18:36:52.983Z,58.40
2023-03-20T18:39:24.052Z,58.40
2023-03-20T18:41:53.212Z,58.50
2023-03-20T18:44:21.902Z,58.50
2023-03-20T18:46:50.979Z,58.40
2023-03-20T18:49:22.222Z,58.20
2023-03-20T18:51:53.174Z,58.20
2023-03-20T18:54:21.519Z,58.40
2023-03-20T18:56:51.677Z,58.30
2023-03-20T18:59:20.044Z,58.80
2023-03-20T19:01:49.481Z,58.20
2023-03-20T19:04:18.197Z,58.10
2023-03-20T19:06:46.906Z,58.10
2023-03-20T19:09:18.400Z,58.10
2023-03-20T19:11:46.754Z,58.00
2023-03-20T19:14:15.422Z,58.00
2023-03-20T19:16:44.063Z,58.00
2023-03-20T19:19:16.843Z,58.10
2023-03-20T19:21:45.247Z,58.10
2023-03-20T19:24:13.926Z,58.10
2023-03-20T19:26:43.856Z,58.20
2023-03-20T19:29:14.112Z,58.10
2023-03-20T19:31:42.921Z,58.10
2023-03-20T19:34:36.882Z,58.10
2023-03-20T19:37:00.740Z,58.10
2023-03-20T19:39:29.288Z,58.10
2023-03-20T19:42:18.493Z,58.10
2023-03-20T19:44:47.593Z,58.00
2023-03-20T19:47:15.939Z,58.10
2023-03-20T19:49:44.429Z,58.00
2023-03-20T19:52:28.707Z,58.00
2023-03-20T19:55:03.060Z,58.10
2023-03-20T19:57:33.421Z,58.10
2023-03-20T20:00:48.805Z,58.10
2023-03-20T20:02:51.280Z,58.20
2023-03-20T20:05:26.360Z,58.00
2023-03-20T20:08:23.222Z,58.10
2023-03-20T20:10:46.415Z,58.00
2023-03-20T20:13:21.275Z,58.10
2023-03-20T20:15:51.448Z,58.00
2023-03-20T20:18:23.004Z,58.10
2023-03-20T20:23:42.439Z,58.00
2023-03-20T20:26:10.952Z,58.20
2023-03-20T20:28:40.741Z,58.20
2023-03-20T20:31:09.239Z,58.20
2023-03-20T20:33:38.452Z,58.20
2023-03-20T20:37:16.742Z,58.20
2023-03-20T20:39:01.093Z,58.20
2023-03-20T20:41:29.618Z,58.20
2023-03-20T20:44:17.666Z,58.20
2023-03-20T20:46:46.876Z,58.80
2023-03-20T20:49:19.561Z,58.00
2023-03-20T20:51:48.960Z,58.00
2023-03-20T20:54:18.008Z,58.00
2023-03-20T20:56:46.904Z,58.00
2023-03-20T20:59:17.220Z,58.00
2023-03-20T21:01:45.883Z,58.00
2023-03-20T21:04:15.022Z,58.00
2023-03-20T21:07:08.215Z,58.10
2023-03-20T21:09:32.476Z,58.10
2023-03-20T21:12:01.165Z,58.10
2023-03-20T21:14:31.403Z,58.00
2023-03-20T21:17:01.682Z,58.00
2023-03-20T21:19:32.045Z,58.10
2023-03-20T21:22:00.466Z,58.10
2023-03-20T21:24:33.611Z,58.10
2023-03-20T21:27:04.174Z,58.00
2023-03-20T21:29:34.112Z,58.00
2023-03-20T21:32:02.622Z,58.00
2023-03-20T21:34:31.172Z,58.00
2023-03-20T21:37:17.914Z,58.00
2023-03-20T21:39:52.709Z,58.00
2023-03-20T21:42:21.902Z,57.90
2023-03-20T21:45:49.762Z,57.90
2023-03-20T21:48:20.140Z,57.90
2023-03-20T21:54:14.716Z,57.80
2023-03-20T21:56:56.594Z,57.80
2023-03-20T22:02:04.819Z,57.80
2023-03-20T22:11:06.407Z,57.80
2023-03-20T22:16:43.251Z,57.90
2023-03-20T22:19:41.546Z,57.90
2023-03-20T22:22:05.580Z,57.90
2023-03-20T22:27:49.313Z,58.00
2023-03-20T22:39:09.759Z,58.20
2023-03-20T22:46:49.374Z,58.20
2023-03-20T22:49:17.901Z,58.30
2023-03-20T22:52:11.464Z,58.30
2023-03-20T22:54:36.428Z,59.00
2023-03-20T22:57:05.421Z,58.40
2023-03-20T22:59:33.792Z,58.40
2023-03-20T23:02:02.613Z,58.40
2023-03-20T23:04:31.200Z,58.40
2023-03-20T23:07:01.834Z,58.40
2023-03-20T23:09:30.633Z,58.40
2023-03-20T23:11:59.374Z,58.40
2023-03-20T23:14:30.792Z,58.40
2023-03-20T23:17:02.198Z,58.40
2023-03-20T23:19:37.818Z,58.40
2023-03-20T23:22:14.839Z,58.40
2023-03-20T23:24:43.429Z,58.50
2023-03-20T23:27:11.803Z,58.40
2023-03-20T23:29:40.308Z,58.40
2023-03-20T23:32:08.831Z,58.50
2023-03-20T23:34:38.344Z,58.40
2023-03-20T23:37:06.875Z,58.50
2023-03-20T23:39:36.815Z,58.40
2023-03-20T23:42:14.813Z,58.60
2023-03-20T23:44:56.481Z,58.50
2023-03-20T23:47:30.079Z,58.60
2023-03-20T23:50:03.962Z,58.60
2023-03-20T23:52:35.152Z,58.60
2023-03-20T23:55:07.657Z,58.60
2023-03-20T23:57:36.255Z,58.70
